Time;durP1;ratioP1;P1;durP2;ratioP2;P2;SDS_P1;SDS_P2;PMS_P1;PMS_P2;Temp;Humidity;BMP_temperature;BMP_pressure;BME280_temperature;BME280_humidity;BME280_pressure;Samples;Min_cycle;Max_cycle;Signal;HPM_P1;HPM_P2
2023/02/14 00:02:06;;;;;;;126.72;19.45;;;;;;;-1.78;100.00;97283.63;5072203;28;20044;-72
2023/02/14 00:04:32;;;;;;;83.35;19.25;;;;;;;-1.75;100.00;97285.94;5082162;28;20119;-73
2023/02/14 00:06:57;;;;;;;93.03;19.42;;;;;;;-1.85;100.00;97282.59;5087204;28;20052;-73
2023/02/14 00:09:23;;;;;;;83.63;20.65;;;;;;;-1.97;100.00;97282.84;5088730;28;20115;-73
2023/02/14 00:11:49;;;;;;;92.68;20.95;;;;;;;-1.94;100.00;97287.72;5077508;28;20037;-73
2023/02/14 00:16:59;;;;;;;127.60;21.00;;;;;;;-1.99;100.00;97295.06;5083797;28;20056;-73
2023/02/14 00:19:25;;;;;;;110.90;20.55;;;;;;;-1.98;100.00;97288.16;5073613;28;20074;-73
2023/02/14 00:21:51;;;;;;;72.28;21.10;;;;;;;-2.09;100.00;97289.16;5074848;28;20039;-73
2023/02/14 00:24:22;;;;;;;172.50;21.15;;;;;;;-2.07;100.00;97287.22;5076576;28;21741;-73
2023/02/14 00:26:48;;;;;;;74.50;19.80;;;;;;;-1.95;100.00;97280.91;5087962;28;20040;-73
2023/02/14 00:29:18;;;;;;;74.63;20.42;;;;;;;-1.91;100.00;97281.44;5072022;28;20040;-73
2023/02/14 00:31:44;;;;;;;129.10;20.40;;;;;;;-1.99;100.00;97282.16;5091547;28;20122;-73
2023/02/14 00:34:10;;;;;;;115.50;19.98;;;;;;;-2.14;100.00;97286.19;5084557;28;20446;-73
2023/02/14 00:36:37;;;;;;;124.75;20.60;;;;;;;-2.01;100.00;97288.41;5082217;28;20040;-73
2023/02/14 00:39:04;;;;;;;141.10;19.65;;;;;;;-2.20;100.00;97287.56;5072756;28;20048;-73
2023/02/14 00:41:30;;;;;;;166.73;22.13;;;;;;;-2.27;100.00;97292.53;5074798;28;20112;-72
2023/02/14 00:43:56;;;;;;;131.27;21.63;;;;;;;-2.13;100.00;97287.81;5081909;28;20077;-73
2023/02/14 00:46:22;;;;;;;71.32;20.23;;;;;;;-2.10;100.00;97287.53;5089189;28;20055;-73
2023/02/14 00:48:48;;;;;;;121.25;22.30;;;;;;;-2.04;100.00;97281.81;5081525;28;20049;-73
2023/02/14 00:51:14;;;;;;;149.88;21.73;;;;;;;-2.10;100.00;97287.53;5078201;28;20037;-72
2023/02/14 00:53:40;;;;;;;129.43;20.10;;;;;;;-2.32;100.00;97284.41;5071430;28;20040;-72
2023/02/14 00:56:06;;;;;;;104.03;20.80;;;;;;;-2.33;100.00;97290.53;5077426;28;20044;-72
2023/02/14 00:58:32;;;;;;;67.15;19.92;;;;;;;-2.16;100.00;97293.28;5074521;28;20044;-72
2023/02/14 01:00:58;;;;;;;94.43;19.33;;;;;;;-2.10;100.00;97292.69;5082199;28;20424;-73
2023/02/14 01:03:24;;;;;;;106.10;20.38;;;;;;;-2.10;100.00;97298.69;5082652;28;20431;-73
2023/02/14 01:05:50;;;;;;;68.75;19.83;;;;;;;-1.98;100.00;97307.00;5079187;28;20037;-72
2023/02/14 01:08:16;;;;;;;118.53;21.58;;;;;;;-2.27;100.00;97302.84;5073856;28;20040;-72
2023/02/14 01:10:42;;;;;;;66.82;20.67;;;;;;;-2.08;100.00;97306.28;5084749;28;20082;-72
2023/02/14 01:13:09;;;;;;;76.10;20.70;;;;;;;-2.06;100.00;97299.19;5071257;28;20044;-72
2023/02/14 01:15:40;;;;;;;68.25;21.08;;;;;;;-2.01;100.00;97296.16;5071221;28;20119;-72
2023/02/14 01:18:06;;;;;;;75.65;20.27;;;;;;;-1.97;100.00;97293.16;5077277;28;20600;-73
2023/02/14 01:20:32;;;;;;;79.63;20.30;;;;;;;-2.16;100.00;97293.28;5077830;28;20051;-73
2023/02/14 01:22:57;;;;;;;103.45;20.38;;;;;;;-2.15;100.00;97300.88;5085104;28;20483;-73
2023/02/14 01:25:23;;;;;;;169.00;20.95;;;;;;;-2.28;100.00;97296.03;5073463;28;20044;-73
2023/02/14 01:27:49;;;;;;;109.85;20.50;;;;;;;-2.36;100.00;97287.41;5080047;28;20033;-73
2023/02/14 01:30:15;;;;;;;56.05;18.33;;;;;;;-2.07;100.00;97279.50;5075925;28;20417;-73
2023/02/14 01:32:41;;;;;;;63.35;19.42;;;;;;;-2.23;100.00;97287.06;5081354;28;20094;-73
2023/02/14 01:35:08;;;;;;;78.97;20.65;;;;;;;-2.32;100.00;97294.72;5077035;28;20032;-73
2023/02/14 01:37:33;;;;;;;52.83;18.10;;;;;;;-2.24;100.00;97298.34;5073403;28;20094;-73
2023/02/14 01:39:59;;;;;;;63.97;18.40;;;;;;;-2.08;100.00;97295.94;5086782;28;20577;-73
2023/02/14 01:42:26;;;;;;;66.15;19.52;;;;;;;-2.31;100.00;97301.50;5074032;28;20313;-73
2023/02/14 01:45:13;;;;;;;62.20;17.80;;;;;;;-2.20;100.00;97307.41;5075531;28;20607;-73
2023/02/14 01:47:40;;;;;;;58.83;19.23;;;;;;;-2.14;100.00;97301.66;5077466;28;20056;-73
2023/02/14 01:50:28;;;;;;;65.88;19.83;;;;;;;-2.19;100.00;97309.03;5070584;28;20044;-73
2023/02/14 01:53:07;;;;;;;51.63;18.17;;;;;;;-2.13;100.00;97303.31;5079016;28;20064;-73
2023/02/14 01:55:37;;;;;;;61.65;19.52;;;;;;;-2.07;100.00;97296.75;5081890;28;20046;-73
2023/02/14 01:58:24;;;;;;;63.00;19.20;;;;;;;-2.04;100.00;97302.44;5077130;28;20071;-73
2023/02/14 02:00:58;;;;;;;58.58;18.42;;;;;;;-2.04;100.00;97297.28;5070164;28;20492;-73
2023/02/14 02:03:37;;;;;;;60.40;19.50;;;;;;;-2.06;100.00;97294.03;5073536;28;20044;-73
2023/02/14 02:06:10;;;;;;;100.38;21.35;;;;;;;-2.21;100.00;97305.78;5075849;28;20468;-71
2023/02/14 02:08:41;;;;;;;64.00;20.75;;;;;;;-2.16;100.00;97308.75;5071707;28;20416;-72
2023/02/14 02:11:07;;;;;;;79.85;20.98;;;;;;;-2.32;100.00;97297.28;5081346;28;20054;-72
2023/02/14 02:13:32;;;;;;;61.50;21.83;;;;;;;-2.29;100.00;97294.41;5079174;28;20040;-72
2023/02/14 02:16:30;;;;;;;67.43;20.70;;;;;;;-2.34;100.00;97296.63;5070151;28;20670;-71
2023/02/14 02:19:22;;;;;;;62.55;20.23;;;;;;;-2.17;100.00;97296.81;5070429;28;20044;-72
2023/02/14 02:22:08;;;;;;;66.35;19.27;;;;;;;-2.30;100.00;97295.41;5070314;28;20121;-72
2023/02/14 02:24:47;;;;;;;68.47;20.33;;;;;;;-2.39;100.00;97291.09;5069816;28;20063;-72
2023/02/14 02:27:24;;;;;;;75.20;18.67;;;;;;;-2.27;100.00;97287.38;5070609;28;20068;-73
2023/02/14 02:30:11;;;;;;;76.55;19.67;;;;;;;-2.28;100.00;97290.88;5084578;28;20047;-73
2023/02/14 02:32:49;;;;;;;47.40;19.13;;;;;;;-2.31;100.00;97291.19;5075415;28;20036;-73
2023/02/14 02:35:34;;;;;;;108.50;18.55;;;;;;;-2.50;100.00;97286.09;5069943;28;20037;-73
2023/02/14 02:38:17;;;;;;;50.95;17.40;;;;;;;-2.44;100.00;97301.03;5075030;28;20583;-73
2023/02/14 02:40:47;;;;;;;41.60;16.50;;;;;;;-2.44;100.00;97277.81;5082283;28;20051;-73
2023/02/14 02:43:29;;;;;;;55.33;17.27;;;;;;;-2.34;100.00;97270.84;5072120;28;20045;-73
2023/02/14 02:53:01;;;;;;;50.35;16.98;;;;;;;-2.40;100.00;97271.41;5082477;28;20107;-73
2023/02/14 02:55:03;;;;;;;60.88;17.85;;;;;;;-2.30;100.00;97266.19;5077825;28;20064;-73
2023/02/14 02:57:38;;;;;;;60.92;16.50;;;;;;;-2.55;100.00;97262.53;5083493;28;20044;-73
2023/02/14 03:00:08;;;;;;;45.28;16.55;;;;;;;-2.47;100.00;97262.63;5077413;28;20522;-73
2023/02/14 03:05:27;;;;;;;42.95;17.70;;;;;;;-2.50;100.00;97271.47;5076703;28;20070;-73
2023/02/14 03:07:53;;;;;;;56.35;18.42;;;;;;;-2.47;100.00;97273.75;5073229;28;20036;-73
2023/02/14 03:10:22;;;;;;;48.45;17.27;;;;;;;-2.42;100.00;97273.31;5072510;28;20557;-73
2023/02/14 03:12:54;;;;;;;57.10;17.35;;;;;;;-2.50;100.00;97265.50;5072428;28;20055;-73
2023/02/14 03:15:38;;;;;;;52.33;15.77;;;;;;;-2.68;100.00;97255.94;5087874;28;20660;-73
2023/02/14 03:18:29;;;;;;;51.97;17.45;;;;;;;-2.45;100.00;97268.47;5069508;28;20041;-73
2023/02/14 03:21:03;;;;;;;53.17;16.90;;;;;;;-2.60;100.00;97260.41;5079116;28;20045;-73
2023/02/14 03:23:37;;;;;;;62.78;17.17;;;;;;;-2.66;100.00;97269.50;5081638;28;20431;-73
2023/02/14 03:26:31;;;;;;;45.55;16.50;;;;;;;-2.45;100.00;97278.78;5076188;28;20064;-73
2023/02/14 03:29:00;;;;;;;38.85;15.35;;;;;;;-2.49;100.00;97274.84;5080562;28;20044;-73
2023/02/14 03:31:38;;;;;;;36.97;15.20;;;;;;;-2.75;100.00;97267.78;5076234;28;20036;-73
2023/02/14 03:34:13;;;;;;;42.28;16.58;;;;;;;-2.81;100.00;97264.00;5082904;28;20045;-73
2023/02/14 03:36:47;;;;;;;41.30;16.33;;;;;;;-2.70;100.00;97255.28;5075156;28;20048;-73
2023/02/14 03:39:23;;;;;;;59.30;17.85;;;;;;;-2.77;100.00;97264.53;5082488;28;20531;-73
2023/02/14 03:41:55;;;;;;;38.75;17.20;;;;;;;-2.69;100.00;97267.19;5076057;28;20561;-74
2023/02/14 03:44:24;;;;;;;45.40;17.13;;;;;;;-2.69;100.00;97276.69;5072861;28;20492;-73
2023/02/14 03:46:55;;;;;;;42.72;16.85;;;;;;;-2.64;100.00;97275.31;5081045;28;20066;-73
2023/02/14 03:49:25;;;;;;;46.72;16.48;;;;;;;-2.81;100.00;97282.03;5073558;28;20511;-73
2023/02/14 03:51:55;;;;;;;55.25;17.52;;;;;;;-2.96;100.00;97281.69;5078860;28;20044;-73
2023/02/14 03:54:24;;;;;;;35.58;14.45;;;;;;;-2.80;100.00;97280.28;5084190;28;20036;-73
2023/02/14 03:56:56;;;;;;;38.40;15.73;;;;;;;-2.78;100.00;97288.69;5072733;28;20043;-74
2023/02/14 03:59:25;;;;;;;41.75;15.82;;;;;;;-2.91;100.00;97283.03;5077236;28;20477;-74
2023/02/14 04:02:04;;;;;;;42.28;16.30;;;;;;;-3.01;100.00;97278.69;5077120;28;20050;-74
2023/02/14 04:04:34;;;;;;;50.85;17.13;;;;;;;-2.97;100.00;97274.91;5072520;28;20041;-73
2023/02/14 04:07:10;;;;;;;36.63;14.82;;;;;;;-2.87;100.00;97281.81;5071445;28;20111;-73
2023/02/14 04:09:35;;;;;;;48.95;16.25;;;;;;;-2.71;100.00;97289.72;5082511;28;20125;-73
2023/02/14 04:12:01;;;;;;;43.25;14.68;;;;;;;-2.90;100.00;97277.75;5085653;28;20821;-74
2023/02/14 04:14:28;;;;;;;38.10;15.30;;;;;;;-2.89;100.00;97275.97;5073312;28;20049;-74
2023/02/14 04:19:38;;;;;;;35.80;15.35;;;;;;;-2.91;100.00;97278.69;5080539;28;20048;-74
2023/02/14 04:22:03;;;;;;;37.55;15.65;;;;;;;-2.97;100.00;97277.47;5071540;28;20051;-74
2023/02/14 04:24:29;;;;;;;40.00;14.43;;;;;;;-2.89;100.00;97270.81;5079873;28;20071;-74
2023/02/14 04:27:16;;;;;;;43.53;13.48;;;;;;;-2.91;100.00;97273.53;5086230;28;20037;-74
2023/02/14 04:29:43;;;;;;;45.60;15.45;;;;;;;-3.15;100.00;97281.72;5079707;28;20110;-74
2023/02/14 04:32:12;;;;;;;43.70;14.65;;;;;;;-3.29;100.00;97275.22;5071024;28;20082;-75
2023/02/14 04:34:39;;;;;;;44.78;14.82;;;;;;;-3.35;100.00;97270.66;5078402;28;20100;-75
2023/02/14 04:37:05;;;;;;;39.67;13.23;;;;;;;-3.28;100.00;97276.06;5076867;28;20489;-75
2023/02/14 04:39:32;;;;;;;32.53;13.55;;;;;;;-3.31;100.00;97283.09;5071840;28;20052;-75
2023/02/14 04:41:57;;;;;;;56.95;15.20;;;;;;;-3.42;100.00;97275.56;5074671;28;20491;-75
2023/02/14 04:44:24;;;;;;;40.60;14.15;;;;;;;-3.43;100.00;97266.19;5075944;28;20070;-75
2023/02/14 04:46:49;;;;;;;37.60;14.48;;;;;;;-3.39;100.00;97270.13;5079622;28;20115;-75
2023/02/14 04:49:15;;;;;;;38.70;13.73;;;;;;;-3.46;100.00;97269.06;5077867;28;20046;-75
2023/02/14 04:51:41;;;;;;;61.03;14.57;;;;;;;-3.49;100.00;97259.03;5083738;28;20048;-75
2023/02/14 04:54:07;;;;;;;49.58;13.20;;;;;;;-3.43;100.00;97258.47;5078968;28;20045;-75
2023/02/14 04:56:32;;;;;;;47.22;15.75;;;;;;;-3.38;100.00;97261.44;5072854;28;20525;-75
2023/02/14 04:58:58;;;;;;;39.17;13.93;;;;;;;-3.36;100.00;97249.25;5079003;28;20039;-75
2023/02/14 05:01:23;;;;;;;38.97;14.10;;;;;;;-3.38;100.00;97250.34;5087482;28;20044;-75
2023/02/14 05:03:49;;;;;;;32.83;14.25;;;;;;;-3.41;100.00;97259.13;5084468;28;20044;-74
2023/02/14 05:06:14;;;;;;;35.85;14.43;;;;;;;-3.37;100.00;97252.75;5085842;28;20048;-75
2023/02/14 05:08:40;;;;;;;32.72;13.93;;;;;;;-3.33;100.00;97259.25;5081092;28;20043;-76
2023/02/14 05:11:06;;;;;;;52.33;15.32;;;;;;;-3.35;100.00;97248.31;5080415;28;20102;-75
2023/02/14 05:13:31;;;;;;;36.33;13.88;;;;;;;-3.28;100.00;97229.72;5079157;28;20036;-75
2023/02/14 05:15:57;;;;;;;70.47;14.13;;;;;;;-3.41;100.00;97240.31;5079778;28;20071;-75
2023/02/14 05:18:24;;;;;;;34.47;14.13;;;;;;;-3.39;100.00;97239.22;5070916;28;20044;-75
2023/02/14 05:20:51;;;;;;;50.25;14.32;;;;;;;-3.44;100.00;97241.41;5077617;28;20035;-75
2023/02/14 05:23:17;;;;;;;30.25;13.68;;;;;;;-3.35;100.00;97243.16;5069750;28;20040;-75
2023/02/14 05:25:43;;;;;;;53.05;14.70;;;;;;;-3.42;100.00;97242.09;5084096;28;20093;-75
2023/02/14 05:28:09;;;;;;;80.82;14.63;;;;;;;-3.50;100.00;97229.09;5075729;28;20813;-75
2023/02/14 05:30:35;;;;;;;44.60;14.82;;;;;;;-3.48;100.00;97232.31;5071977;28;20040;-75
2023/02/14 05:33:01;;;;;;;38.65;13.43;;;;;;;-3.52;100.00;97243.84;5081887;28;20538;-75
2023/02/14 05:35:27;;;;;;;32.35;13.95;;;;;;;-3.48;100.00;97234.91;5079029;28;20039;-75
2023/02/14 05:37:53;;;;;;;44.75;13.38;;;;;;;-3.58;100.00;97234.09;5085756;28;20052;-75
2023/02/14 05:40:18;;;;;;;44.30;14.45;;;;;;;-3.40;100.00;97240.19;5070751;28;20048;-75
2023/02/14 05:42:44;;;;;;;34.90;13.88;;;;;;;-3.41;100.00;97241.13;5075483;28;20183;-75
2023/02/14 05:45:10;;;;;;;35.97;14.40;;;;;;;-3.39;100.00;97244.38;5070634;28;20492;-75
2023/02/14 05:47:36;;;;;;;47.33;14.27;;;;;;;-3.50;100.00;97253.06;5072300;28;20432;-75
2023/02/14 05:50:02;;;;;;;34.83;14.27;;;;;;;-3.43;100.00;97253.31;5070472;28;20036;-75
2023/02/14 05:52:27;;;;;;;34.40;13.52;;;;;;;-3.49;100.00;97251.31;5077389;28;20051;-75
2023/02/14 05:54:53;;;;;;;32.42;13.07;;;;;;;-3.51;100.00;97248.84;5078339;28;20042;-75
2023/02/14 05:57:18;;;;;;;29.85;12.60;;;;;;;-3.33;100.00;97253.31;5078487;28;20508;-76
2023/02/14 05:59:44;;;;;;;41.45;14.82;;;;;;;-3.54;100.00;97256.84;5070050;28;20565;-75
2023/02/14 06:02:10;;;;;;;35.20;12.90;;;;;;;-3.48;100.00;97250.34;5081525;28;20134;-75
2023/02/14 06:04:35;;;;;;;44.63;13.95;;;;;;;-3.55;100.00;97244.13;5074603;28;20427;-76
2023/02/14 06:07:01;;;;;;;35.03;12.80;;;;;;;-3.53;100.00;97257.69;5070226;28;20040;-76
2023/02/14 06:09:27;;;;;;;40.28;13.60;;;;;;;-3.56;100.00;97263.06;5077910;28;20036;-75
2023/02/14 06:11:52;;;;;;;35.55;14.40;;;;;;;-3.58;100.00;97257.28;5081446;28;20039;-76
2023/02/14 06:14:18;;;;;;;35.33;12.95;;;;;;;-3.73;100.00;97251.75;5088543;28;20044;-76
2023/02/14 06:16:44;;;;;;;31.80;13.98;;;;;;;-3.74;100.00;97261.19;5087907;28;20043;-75
2023/02/14 06:19:09;;;;;;;30.13;13.35;;;;;;;-3.71;100.00;97260.91;5085970;28;20406;-75
2023/02/14 06:21:35;;;;;;;33.53;14.27;;;;;;;-3.72;100.00;97249.03;5084641;28;20070;-75
2023/02/14 06:24:00;;;;;;;38.25;14.38;;;;;;;-3.73;100.00;97257.69;5089597;28;20044;-75
2023/02/14 06:26:26;;;;;;;44.45;9.57;;;;;;;-3.89;100.00;97272.88;5088224;28;20044;-75
2023/02/14 06:28:53;;;;;;;55.47;14.65;;;;;;;-3.90;100.00;97266.09;5082941;28;20040;-75
2023/02/14 06:31:19;;;;;;;34.53;12.82;;;;;;;-3.64;100.00;97275.84;5077784;28;20040;-77
2023/02/14 06:33:45;;;;;;;33.50;13.00;;;;;;;-3.58;100.00;97275.28;5084700;28;20100;-77
2023/02/14 06:36:10;;;;;;;34.00;13.75;;;;;;;-3.63;100.00;97272.28;5087574;28;20055;-76
2023/02/14 06:38:36;;;;;;;45.20;13.07;;;;;;;-3.68;100.00;97276.13;5091445;28;20040;-77
2023/02/14 06:41:06;;;;;;;46.10;13.45;;;;;;;-3.63;100.00;97285.16;5082854;28;20044;-77
2023/02/14 06:43:32;;;;;;;48.25;13.38;;;;;;;-3.68;100.00;97281.25;5083656;28;20067;-78
2023/02/14 06:45:58;;;;;;;36.35;14.65;;;;;;;-3.64;100.00;97270.69;5093435;28;20118;-77
2023/02/14 06:48:24;;;;;;;52.88;13.85;;;;;;;-3.77;100.00;97276.91;5102915;28;20104;-77
2023/02/14 06:50:51;;;;;;;70.00;15.85;;;;;;;-3.70;100.00;97257.41;5091819;28;20086;-78
2023/02/14 06:53:16;;;;;;;96.72;16.63;;;;;;;-3.59;100.00;97273.66;5093651;28;20048;-77
2023/02/14 06:55:42;;;;;;;78.53;15.15;;;;;;;-3.48;100.00;97270.94;5094607;28;20111;-77
2023/02/14 06:58:07;;;;;;;58.70;13.80;;;;;;;-3.72;100.00;97279.91;5089435;28;20048;-77
2023/02/14 07:00:33;;;;;;;55.00;15.25;;;;;;;-3.64;100.00;97270.69;5092361;28;20113;-77
2023/02/14 07:02:58;;;;;;;67.32;14.88;;;;;;;-3.60;100.00;97265.13;5086766;28;20047;-79
2023/02/14 07:05:24;;;;;;;44.30;15.23;;;;;;;-3.45;100.00;97265.50;5090345;28;20039;-79
2023/02/14 07:07:50;;;;;;;46.72;14.35;;;;;;;-3.63;100.00;97267.16;5089917;28;20157;-80
2023/02/14 07:10:15;;;;;;;48.20;14.65;;;;;;;-3.44;100.00;97262.00;5087803;28;20131;-80
2023/02/14 07:12:41;;;;;;;45.40;15.25;;;;;;;-3.42;100.00;97265.25;5086319;28;20040;-78
2023/02/14 07:15:09;;;;;;;43.60;15.50;;;;;;;-3.33;100.00;97264.41;5087234;28;20094;-78
2023/02/14 07:17:34;;;;;;;44.10;14.98;;;;;;;-3.32;100.00;97265.22;5091785;28;20043;-78
2023/02/14 07:20:00;;;;;;;47.70;15.05;;;;;;;-3.16;100.00;97264.63;5079728;28;20052;-76
2023/02/14 07:22:26;;;;;;;42.97;14.32;;;;;;;-3.15;100.00;97267.09;5081138;28;20032;-77
2023/02/14 07:24:51;;;;;;;31.05;12.88;;;;;;;-3.23;100.00;97268.72;5084449;28;20037;-78
2023/02/14 07:27:17;;;;;;;35.78;14.10;;;;;;;-3.37;100.00;97268.22;5083259;28;20040;-79
2023/02/14 07:29:42;;;;;;;35.90;14.55;;;;;;;-3.20;100.00;97268.47;5090516;28;20040;-78
2023/02/14 07:32:08;;;;;;;47.33;15.70;;;;;;;-3.19;100.00;97252.88;5071182;28;20040;-77
2023/02/14 07:34:34;;;;;;;33.80;14.20;;;;;;;-3.27;100.00;97257.91;5094378;28;20529;-79
2023/02/14 07:37:00;;;;;;;45.22;16.58;;;;;;;-3.19;100.00;97260.59;5095905;28;20036;-77
2023/02/14 07:39:26;;;;;;;40.67;14.40;;;;;;;-3.26;100.00;97259.53;5086040;28;20044;-77
2023/02/14 07:41:52;;;;;;;35.92;14.82;;;;;;;-3.10;100.00;97253.81;5079624;28;20047;-77
2023/02/14 07:44:18;;;;;;;37.53;13.57;;;;;;;-3.37;100.00;97252.75;5089412;28;20123;-77
2023/02/14 07:46:43;;;;;;;33.28;14.30;;;;;;;-3.29;100.00;97251.25;5086547;28;20075;-77
2023/02/14 07:49:10;;;;;;;32.50;13.98;;;;;;;-3.22;100.00;97245.44;5086981;28;20158;-77
2023/02/14 07:51:36;;;;;;;42.20;15.40;;;;;;;-3.05;100.00;97251.59;5089132;28;20127;-77
2023/02/14 07:54:02;;;;;;;37.67;15.75;;;;;;;-3.07;100.00;97243.22;5088489;28;20568;-77
2023/02/14 07:56:27;;;;;;;42.05;15.13;;;;;;;-3.12;100.00;97240.22;5083831;28;20052;-77
2023/02/14 07:58:53;;;;;;;38.45;15.00;;;;;;;-3.09;100.00;97242.53;5089171;28;20044;-77
2023/02/14 08:01:19;;;;;;;49.80;15.68;;;;;;;-2.95;100.00;97230.97;5087401;28;20040;-77
2023/02/14 08:03:48;;;;;;;45.03;15.35;;;;;;;-2.93;100.00;97228.25;5083510;28;20040;-76
2023/02/14 08:06:18;;;;;;;36.17;14.38;;;;;;;-2.92;100.00;97229.88;5089360;28;20094;-76
2023/02/14 08:08:44;;;;;;;35.38;15.45;;;;;;;-2.86;100.00;97229.31;5090471;28;20431;-76
2023/02/14 08:11:10;;;;;;;47.97;16.10;;;;;;;-2.64;100.00;97218.63;5089975;28;20047;-76
2023/02/14 08:13:36;;;;;;;41.10;15.15;;;;;;;-2.69;100.00;97215.66;5090874;28;20040;-76
2023/02/14 08:16:04;;;;;;;51.88;16.95;;;;;;;-2.76;100.00;97224.91;5092859;28;20495;-77
2023/02/14 08:18:39;;;;;;;39.53;15.73;;;;;;;-2.61;100.00;97223.47;5089883;28;20040;-76
2023/02/14 08:21:08;;;;;;;35.20;14.95;;;;;;;-2.44;100.00;97218.53;5091105;28;20048;-76
2023/02/14 08:23:35;;;;;;;56.85;16.48;;;;;;;-2.71;100.00;97222.72;5091071;28;20496;-76
2023/02/14 08:26:01;;;;;;;47.92;16.48;;;;;;;-2.91;100.00;97216.84;5092896;28;20047;-76
2023/02/14 08:28:27;;;;;;;43.47;16.55;;;;;;;-2.66;100.00;97225.69;5088091;28;20040;-76
2023/02/14 08:30:53;;;;;;;40.75;16.60;;;;;;;-2.36;100.00;97223.75;5090362;28;20090;-76
2023/02/14 08:33:19;;;;;;;41.80;17.30;;;;;;;-2.65;100.00;97222.16;5090067;28;20040;-76
2023/02/14 08:35:45;;;;;;;42.97;16.67;;;;;;;-2.74;100.00;97228.16;5089783;28;20089;-76
2023/02/14 08:38:10;;;;;;;40.42;16.95;;;;;;;-2.68;100.00;97226.78;5090204;28;20544;-76
2023/02/14 08:40:36;;;;;;;42.70;17.55;;;;;;;-2.29;100.00;97221.41;5091847;28;20036;-76
2023/02/14 08:43:03;;;;;;;45.38;16.92;;;;;;;-2.34;100.00;97224.44;5090235;28;20040;-75
2023/02/14 08:45:29;;;;;;;46.13;17.33;;;;;;;-2.65;100.00;97232.44;5090065;28;20743;-76
2023/02/14 08:48:03;;;;;;;41.70;17.23;;;;;;;-2.27;100.00;97234.94;5092157;28;20028;-76
2023/02/14 08:50:29;;;;;;;53.90;18.42;;;;;;;-2.27;100.00;97234.94;5089068;28;20062;-75
2023/02/14 08:52:54;;;;;;;63.38;18.92;;;;;;;-2.28;100.00;97239.31;5091794;28;20036;-75
2023/02/14 08:55:20;;;;;;;51.28;19.10;;;;;;;-2.10;100.00;97235.94;5090027;28;20047;-75
2023/02/14 08:57:45;;;;;;;48.85;19.20;;;;;;;-2.09;100.00;97232.41;5090302;28;20043;-75
2023/02/14 09:00:11;;;;;;;51.78;19.45;;;;;;;-2.22;100.00;97237.91;5085567;28;20055;-75
2023/02/14 09:02:37;;;;;;;43.97;18.00;;;;;;;-2.24;100.00;97239.00;5087177;28;20048;-75
2023/02/14 09:05:02;;;;;;;48.13;18.30;;;;;;;-2.15;100.00;97244.13;5091191;28;20102;-75
2023/02/14 09:07:28;;;;;;;48.08;19.58;;;;;;;-2.10;100.00;97248.81;5091720;28;20048;-75
2023/02/14 09:09:54;;;;;;;49.78;18.42;;;;;;;-2.32;100.00;97248.28;5088526;28;20036;-75
2023/02/14 09:12:19;;;;;;;46.90;18.08;;;;;;;-1.83;100.00;97247.16;5082315;28;20032;-74
2023/02/14 09:14:45;;;;;;;43.47;17.13;;;;;;;-1.65;100.00;97244.53;5091260;28;20044;-74
2023/02/14 09:17:12;;;;;;;46.47;18.33;;;;;;;-1.74;100.00;97246.25;5091668;28;20060;-74
2023/02/14 09:19:38;;;;;;;45.83;17.45;;;;;;;-1.79;100.00;97249.28;5089330;28;20043;-74
2023/02/14 09:22:06;;;;;;;44.88;17.15;;;;;;;-1.84;100.00;97251.50;5085805;28;20036;-74
2023/02/14 09:24:34;;;;;;;54.38;17.38;;;;;;;-1.59;100.00;97249.94;5091206;28;20040;-74
2023/02/14 09:27:00;;;;;;;47.47;16.98;;;;;;;-1.46;100.00;97243.59;5090222;28;20094;-74
2023/02/14 09:29:27;;;;;;;40.67;15.38;;;;;;;-1.42;100.00;97239.75;5087591;28;20491;-75
2023/02/14 09:31:58;;;;;;;50.13;18.85;;;;;;;-1.92;100.00;97239.34;5094522;28;20043;-74
2023/02/14 09:34:25;;;;;;;43.60;16.60;;;;;;;-1.51;100.00;97235.47;5087749;28;20483;-74
2023/02/14 09:37:03;;;;;;;45.42;18.08;;;;;;;-1.34;100.00;97229.44;5092573;28;20043;-74
2023/02/14 09:39:28;;;;;;;53.35;18.88;;;;;;;-1.24;100.00;97227.56;5090364;28;20163;-74
2023/02/14 09:42:09;;;;;;;53.42;19.02;;;;;;;-1.24;100.00;97227.56;5085249;28;20074;-74
2023/02/14 09:44:42;;;;;;;50.10;17.83;;;;;;;-0.77;100.00;97233.31;5088819;28;20036;-74
2023/02/14 09:47:26;;;;;;;51.50;19.05;;;;;;;-1.40;100.00;97230.06;5092011;28;20044;-74
2023/02/14 09:49:53;;;;;;;50.30;18.35;;;;;;;-1.17;100.00;97234.72;5089206;28;20040;-74
2023/02/14 09:52:21;;;;;;;55.53;19.92;;;;;;;-0.90;100.00;97229.38;5087613;28;20604;-74
2023/02/14 09:54:53;;;;;;;54.63;19.67;;;;;;;-0.89;100.00;97233.59;5091159;28;20044;-74
2023/02/14 09:57:23;;;;;;;55.55;20.23;;;;;;;-1.29;100.00;97229.81;5089400;28;20040;-74
2023/02/14 10:00:06;;;;;;;53.78;19.40;;;;;;;-0.75;100.00;97231.38;5087033;28;20418;-74
2023/02/14 10:02:52;;;;;;;61.30;20.17;;;;;;;-0.36;100.00;97231.69;5088125;28;20032;-74
2023/02/14 10:05:22;;;;;;;65.07;20.70;;;;;;;-0.19;100.00;97227.38;5087963;28;20131;-74
2023/02/14 10:08:31;;;;;;;57.08;20.35;;;;;;;-0.06;100.00;97231.25;5089414;28;20578;-74
2023/02/14 10:11:06;;;;;;;58.40;19.17;;;;;;;-0.08;100.00;97234.00;5084446;28;20117;-75
2023/02/14 10:13:40;;;;;;;61.58;19.30;;;;;;;-0.03;100.00;97228.34;5088879;28;20040;-74
2023/02/14 10:16:24;;;;;;;65.07;20.02;;;;;;;0.12;100.00;97219.00;5087546;28;20546;-74
2023/02/14 10:18:56;;;;;;;61.95;21.00;;;;;;;2.40;100.00;97208.91;5089203;28;20040;-74
2023/02/14 10:21:27;;;;;;;58.58;20.27;;;;;;;2.79;100.00;97212.28;5089169;28;20547;-74
2023/02/14 10:24:00;;;;;;;58.00;19.73;;;;;;;2.31;100.00;97203.94;5088200;28;20047;-74
2023/02/14 10:26:35;;;;;;;50.70;20.08;;;;;;;3.34;100.00;97199.03;5090323;28;20055;-74
2023/02/14 10:29:04;;;;;;;63.13;22.33;;;;;;;3.08;100.00;97200.28;5083252;28;20036;-74
2023/02/14 10:31:50;;;;;;;62.10;22.05;;;;;;;3.02;100.00;97201.00;5089083;28;20100;-74
2023/02/14 10:34:34;;;;;;;67.70;21.92;;;;;;;3.50;100.00;97198.81;5088497;28;20511;-74
2023/02/14 10:37:19;;;;;;;56.55;21.33;;;;;;;3.94;100.00;97195.28;5079968;28;20047;-74
2023/02/14 10:40:21;;;;;;;49.70;20.23;;;;;;;4.90;100.00;97186.22;5088560;28;20044;-75
2023/02/14 10:42:55;;;;;;;45.15;16.83;;;;;;;5.04;100.00;97192.28;5084697;28;20040;-75
2023/02/14 10:45:36;;;;;;;;;;;;;;;5.58;100.00;97190.75;5086497;28;20047;-74
2023/02/14 10:48:12;;;;;;;37.53;13.60;;;;;;;6.58;100.00;97179.66;5069776;28;20003;-75
2023/02/14 10:51:13;;;;;;;30.60;12.70;;;;;;;5.95;100.00;97186.03;5080997;28;20040;-74
2023/02/14 10:53:57;;;;;;;26.10;12.10;;;;;;;6.58;100.00;97175.22;5079953;28;20135;-73
2023/02/14 10:56:46;;;;;;;23.80;11.55;;;;;;;6.97;100.00;97167.53;5077966;28;20051;-74
2023/02/14 10:59:38;;;;;;;24.60;11.55;;;;;;;6.67;100.00;97167.19;5088119;28;20043;-74
2023/02/14 11:02:05;;;;;;;26.98;11.70;;;;;;;7.44;100.00;97162.94;5074546;28;20124;-72
2023/02/14 11:04:31;;;;;;;22.40;11.15;;;;;;;6.40;100.00;97162.75;5087840;28;20066;-75
2023/02/14 11:06:57;;;;;;;27.33;12.52;;;;;;;6.57;100.00;97160.53;5087193;28;20055;-75
2023/02/14 11:09:22;;;;;;;26.55;12.15;;;;;;;8.39;100.00;97147.41;5073270;28;20431;-75
2023/02/14 11:11:52;;;;;;;32.53;11.55;;;;;;;9.00;100.00;97143.22;5069431;28;20492;-75
2023/02/14 11:14:20;;;;;;;20.48;12.10;;;;;;;9.01;100.00;97150.91;5088132;28;20044;-75
2023/02/14 11:16:50;;;;;;;30.67;12.30;;;;;;;9.71;99.27;97148.84;5082686;28;20089;-75
2023/02/14 11:19:26;;;;;;;20.08;11.43;;;;;;;9.77;100.00;97144.50;5089700;28;20044;-75
2023/02/14 11:21:55;;;;;;;22.48;11.57;;;;;;;9.86;97.09;97136.09;5074963;28;20063;-76
2023/02/14 11:24:34;;;;;;;21.77;12.38;;;;;;;9.25;100.00;97131.84;5089745;28;20067;-75
2023/02/14 11:27:06;;;;;;;25.23;12.77;;;;;;;9.74;95.70;97126.56;5081932;28;20052;-76
2023/02/14 11:29:37;;;;;;;24.23;13.05;;;;;;;10.97;87.39;97123.38;5086633;28;20040;-73
2023/02/14 11:32:15;;;;;;;25.67;12.93;;;;;;;10.53;89.29;97113.22;5081183;28;20044;-74
2023/02/14 11:34:45;;;;;;;21.20;12.88;;;;;;;10.48;90.97;97106.00;5082579;28;20181;-74
2023/02/14 11:37:16;;;;;;;31.38;13.50;;;;;;;10.86;92.14;97110.00;5090558;28;20059;-74